sensor_id;sensor_type;location;lat;lon;timestamp;pressure;altitude;pressure_sealevel;temperature;humidity
18500;BME280;9379;52.134;11.576;2022-11-18T00:01:57;99461.25;;;7.36;100.00
18500;BME280;9379;52.134;11.576;2022-11-18T00:04:24;99458.25;;;6.92;100.00
18500;BME280;9379;52.134;11.576;2022-11-18T00:06:51;99464.00;;;7.44;100.00
18500;BME280;9379;52.134;11.576;2022-11-18T00:09:17;99472.28;;;6.92;100.00
18500;BME280;9379;52.134;11.576;2022-11-18T00:11:44;99476.88;;;7.00;100.00
18500;BME280;9379;52.134;11.576;2022-11-18T00:14:30;99474.31;;;7.27;100.00
18500;BME280;9379;52.134;11.576;2022-11-18T00:16:58;99472.59;;;7.55;100.00
18500;BME280;9379;52.134;11.576;2022-11-18T00:19:28;99481.72;;;7.24;100.00
18500;BME280;9379;52.134;11.576;2022-11-18T00:21:55;99482.16;;;7.19;100.00
18500;BME280;9379;52.134;11.576;2022-11-18T00:24:24;99474.28;;;7.47;100.00
18500;BME280;9379;52.134;11.576;2022-11-18T00:26:51;99484.56;;;7.50;100.00
18500;BME280;9379;52.134;11.576;2022-11-18T00:29:19;99469.56;;;7.41;100.00
18500;BME280;9379;52.134;11.576;2022-11-18T00:31:47;99484.38;;;7.05;100.00
18500;BME280;9379;52.134;11.576;2022-11-18T00:34:15;99474.38;;;6.89;100.00
18500;BME280;9379;52.134;11.576;2022-11-18T00:36:43;99462.41;;;6.94;100.00
18500;BME280;9379;52.134;11.576;2022-11-18T00:39:11;99478.69;;;7.09;100.00
18500;BME280;9379;52.134;11.576;2022-11-18T00:41:38;99481.75;;;6.95;100.00
18500;BME280;9379;52.134;11.576;2022-11-18T00:44:22;99485.75;;;6.80;100.00
18500;BME280;9379;52.134;11.576;2022-11-18T00:46:50;99467.81;;;7.12;100.00
18500;BME280;9379;52.134;11.576;2022-11-18T00:49:17;99483.41;;;6.86;100.00
18500;BME280;9379;52.134;11.576;2022-11-18T00:51:44;99481.59;;;6.87;100.00
18500;BME280;9379;52.134;11.576;2022-11-18T00:54:10;99481.44;;;6.69;100.00
18500;BME280;9379;52.134;11.576;2022-11-18T00:56:37;99476.03;;;6.80;100.00
18500;BME280;9379;52.134;11.576;2022-11-18T00:59:04;99468.09;;;6.51;100.00
18500;BME280;9379;52.134;11.576;2022-11-18T01:01:31;99468.22;;;6.59;100.00
18500;BME280;9379;52.134;11.576;2022-11-18T01:03:59;99457.97;;;6.66;100.00
18500;BME280;9379;52.134;11.576;2022-11-18T01:06:26;99465.31;;;6.53;100.00
18500;BME280;9379;52.134;11.576;2022-11-18T01:08:52;99467.81;;;6.44;100.00
18500;BME280;9379;52.134;11.576;2022-11-18T01:11:19;99471.00;;;6.48;100.00
18500;BME280;9379;52.134;11.576;2022-11-18T01:14:04;99464.75;;;6.59;100.00
18500;BME280;9379;52.134;11.576;2022-11-18T01:16:30;99466.03;;;6.64;100.00
18500;BME280;9379;52.134;11.576;2022-11-18T01:18:59;99471.72;;;6.79;100.00
18500;BME280;9379;52.134;11.576;2022-11-18T01:21:27;99477.28;;;6.66;100.00
18500;BME280;9379;52.134;11.576;2022-11-18T01:23:54;99481.19;;;6.72;100.00
18500;BME280;9379;52.134;11.576;2022-11-18T01:26:21;99486.03;;;6.57;100.00
18500;BME280;9379;52.134;11.576;2022-11-18T01:28:48;99492.31;;;6.76;100.00
18500;BME280;9379;52.134;11.576;2022-11-18T01:31:17;99497.88;;;6.72;100.00
18500;BME280;9379;52.134;11.576;2022-11-18T01:33:45;99496.59;;;6.77;100.00
18500;BME280;9379;52.134;11.576;2022-11-18T01:36:18;99491.28;;;6.48;100.00
18500;BME280;9379;52.134;11.576;2022-11-18T01:38:46;99493.78;;;6.59;100.00
18500;BME280;9379;52.134;11.576;2022-11-18T01:41:13;99493.19;;;6.36;100.00
18500;BME280;9379;52.134;11.576;2022-11-18T01:43:49;99496.84;;;6.54;100.00
18500;BME280;9379;52.134;11.576;2022-11-18T01:46:17;99502.09;;;6.35;100.00
18500;BME280;9379;52.134;11.576;2022-11-18T01:48:45;99484.09;;;6.50;100.00
18500;BME280;9379;52.134;11.576;2022-11-18T01:51:18;99504.50;;;6.57;100.00
18500;BME280;9379;52.134;11.576;2022-11-18T01:53:50;99510.03;;;6.44;100.00
18500;BME280;9379;52.134;11.576;2022-11-18T01:56:22;99515.34;;;6.54;100.00
18500;BME280;9379;52.134;11.576;2022-11-18T01:58:52;99517.84;;;6.56;100.00
18500;BME280;9379;52.134;11.576;2022-11-18T02:01:20;99512.50;;;6.36;100.00
18500;BME280;9379;52.134;11.576;2022-11-18T02:03:47;99511.88;;;6.54;100.00
18500;BME280;9379;52.134;11.576;2022-11-18T02:06:15;99512.66;;;6.44;100.00
18500;BME280;9379;52.134;11.576;2022-11-18T02:08:43;99504.25;;;6.10;100.00
18500;BME280;9379;52.134;11.576;2022-11-18T02:11:12;99503.16;;;6.23;100.00
18500;BME280;9379;52.134;11.576;2022-11-18T02:13:53;99517.59;;;6.78;100.00
18500;BME280;9379;52.134;11.576;2022-11-18T02:16:22;99519.81;;;6.92;100.00
18500;BME280;9379;52.134;11.576;2022-11-18T02:18:54;99511.75;;;7.03;100.00
18500;BME280;9379;52.134;11.576;2022-11-18T02:21:28;99525.28;;;6.31;100.00
18500;BME280;9379;52.134;11.576;2022-11-18T02:24:25;99524.38;;;6.52;100.00
18500;BME280;9379;52.134;11.576;2022-11-18T02:29:55;99538.88;;;6.86;100.00
18500;BME280;9379;52.134;11.576;2022-11-18T02:32:28;99534.22;;;6.59;100.00
18500;BME280;9379;52.134;11.576;2022-11-18T02:35:01;99526.72;;;6.55;100.00
18500;BME280;9379;52.134;11.576;2022-11-18T02:37:35;99536.25;;;6.36;100.00
18500;BME280;9379;52.134;11.576;2022-11-18T02:40:07;99526.06;;;6.22;100.00
18500;BME280;9379;52.134;11.576;2022-11-18T02:42:37;99523.28;;;6.64;100.00
18500;BME280;9379;52.134;11.576;2022-11-18T02:45:11;99531.66;;;6.29;100.00
18500;BME280;9379;52.134;11.576;2022-11-18T02:47:41;99519.94;;;6.12;100.00
18500;BME280;9379;52.134;11.576;2022-11-18T02:50:11;99507.94;;;5.98;100.00
18500;BME280;9379;52.134;11.576;2022-11-18T02:52:40;99534.63;;;6.45;100.00
18500;BME280;9379;52.134;11.576;2022-11-18T02:55:10;99534.41;;;6.77;100.00
18500;BME280;9379;52.134;11.576;2022-11-18T02:57:40;99533.88;;;6.33;100.00
18500;BME280;9379;52.134;11.576;2022-11-18T03:00:11;99537.38;;;6.34;100.00
18500;BME280;9379;52.134;11.576;2022-11-18T03:02:40;99543.94;;;6.49;100.00
18500;BME280;9379;52.134;11.576;2022-11-18T03:05:09;99537.50;;;6.32;100.00
18500;BME280;9379;52.134;11.576;2022-11-18T03:07:40;99538.34;;;6.33;100.00
18500;BME280;9379;52.134;11.576;2022-11-18T03:10:08;99538.84;;;6.17;100.00
18500;BME280;9379;52.134;11.576;2022-11-18T03:12:41;99543.91;;;6.39;100.00
18500;BME280;9379;52.134;11.576;2022-11-18T03:15:17;99534.91;;;6.42;100.00
18500;BME280;9379;52.134;11.576;2022-11-18T03:17:52;99531.50;;;6.21;100.00
18500;BME280;9379;52.134;11.576;2022-11-18T03:20:23;99547.53;;;6.38;100.00
18500;BME280;9379;52.134;11.576;2022-11-18T03:22:54;99543.25;;;5.86;100.00
18500;BME280;9379;52.134;11.576;2022-11-18T03:25:27;99549.50;;;5.85;100.00
18500;BME280;9379;52.134;11.576;2022-11-18T03:27:59;99551.81;;;5.99;100.00
18500;BME280;9379;52.134;11.576;2022-11-18T03:30:34;99548.88;;;5.72;100.00
18500;BME280;9379;52.134;11.576;2022-11-18T03:33:05;99542.97;;;5.89;100.00
18500;BME280;9379;52.134;11.576;2022-11-18T03:35:38;99547.41;;;5.89;100.00
18500;BME280;9379;52.134;11.576;2022-11-18T03:38:10;99550.94;;;6.20;100.00
18500;BME280;9379;52.134;11.576;2022-11-18T03:40:40;99562.13;;;6.02;100.00
18500;BME280;9379;52.134;11.576;2022-11-18T03:43:12;99555.78;;;6.64;100.00
18500;BME280;9379;52.134;11.576;2022-11-18T03:45:44;99552.78;;;7.08;98.82
18500;BME280;9379;52.134;11.576;2022-11-18T03:48:15;99582.91;;;6.26;100.00
18500;BME280;9379;52.134;11.576;2022-11-18T03:50:45;99577.31;;;6.20;100.00
18500;BME280;9379;52.134;11.576;2022-11-18T03:53:14;99585.66;;;6.25;100.00
18500;BME280;9379;52.134;11.576;2022-11-18T03:55:46;99589.00;;;6.27;100.00
18500;BME280;9379;52.134;11.576;2022-11-18T03:58:20;99599.53;;;5.96;100.00
18500;BME280;9379;52.134;11.576;2022-11-18T04:00:56;99601.19;;;5.76;100.00
18500;BME280;9379;52.134;11.576;2022-11-18T04:03:27;99599.91;;;5.71;100.00
18500;BME280;9379;52.134;11.576;2022-11-18T04:05:59;99606.09;;;6.02;100.00
18500;BME280;9379;52.134;11.576;2022-11-18T04:08:34;99603.47;;;5.60;100.00
18500;BME280;9379;52.134;11.576;2022-11-18T04:11:07;99599.94;;;5.92;100.00
18500;BME280;9379;52.134;11.576;2022-11-18T04:13:57;99612.06;;;5.83;100.00
18500;BME280;9379;52.134;11.576;2022-11-18T04:16:26;99609.41;;;5.41;100.00
18500;BME280;9379;52.134;11.576;2022-11-18T04:18:52;99620.28;;;5.48;100.00
18500;BME280;9379;52.134;11.576;2022-11-18T04:21:19;99613.47;;;5.66;100.00
18500;BME280;9379;52.134;11.576;2022-11-18T04:23:46;99584.53;;;5.34;100.00
18500;BME280;9379;52.134;11.576;2022-11-18T04:26:13;99615.28;;;5.45;100.00
18500;BME280;9379;52.134;11.576;2022-11-18T04:28:42;99609.44;;;5.62;100.00
18500;BME280;9379;52.134;11.576;2022-11-18T04:31:08;99625.81;;;5.86;100.00
18500;BME280;9379;52.134;11.576;2022-11-18T04:33:37;99627.81;;;5.73;100.00
18500;BME280;9379;52.134;11.576;2022-11-18T04:36:04;99623.91;;;5.68;100.00
18500;BME280;9379;52.134;11.576;2022-11-18T04:38:31;99610.94;;;5.44;100.00
18500;BME280;9379;52.134;11.576;2022-11-18T04:40:57;99629.81;;;5.81;100.00
18500;BME280;9379;52.134;11.576;2022-11-18T04:43:24;99639.50;;;5.60;100.00
18500;BME280;9379;52.134;11.576;2022-11-18T04:45:51;99638.06;;;5.55;100.00
18500;BME280;9379;52.134;11.576;2022-11-18T04:48:18;99638.53;;;5.93;100.00
18500;BME280;9379;52.134;11.576;2022-11-18T04:50:46;99634.97;;;5.30;100.00
18500;BME280;9379;52.134;11.576;2022-11-18T04:53:13;99650.41;;;5.55;100.00
18500;BME280;9379;52.134;11.576;2022-11-18T04:55:39;99636.00;;;5.70;100.00
18500;BME280;9379;52.134;11.576;2022-11-18T04:58:06;99638.75;;;5.69;100.00
18500;BME280;9379;52.134;11.576;2022-11-18T05:00:33;99636.66;;;5.51;100.00
18500;BME280;9379;52.134;11.576;2022-11-18T05:02:59;99641.72;;;5.22;100.00
18500;BME280;9379;52.134;11.576;2022-11-18T05:05:26;99635.66;;;5.64;100.00
18500;BME280;9379;52.134;11.576;2022-11-18T05:07:54;99639.19;;;5.53;100.00
18500;BME280;9379;52.134;11.576;2022-11-18T05:10:21;99652.19;;;5.86;100.00
18500;BME280;9379;52.134;11.576;2022-11-18T05:12:48;99656.53;;;5.55;100.00
18500;BME280;9379;52.134;11.576;2022-11-18T05:15:14;99654.81;;;5.66;100.00
18500;BME280;9379;52.134;11.576;2022-11-18T05:17:41;99662.97;;;5.63;100.00
18500;BME280;9379;52.134;11.576;2022-11-18T05:20:08;99671.84;;;5.94;100.00
18500;BME280;9379;52.134;11.576;2022-11-18T05:22:35;99671.09;;;5.39;100.00
18500;BME280;9379;52.134;11.576;2022-11-18T05:25:04;99673.38;;;5.32;100.00
18500;BME280;9379;52.134;11.576;2022-11-18T05:27:31;99665.56;;;5.42;100.00
18500;BME280;9379;52.134;11.576;2022-11-18T05:29:58;99674.56;;;5.39;100.00
18500;BME280;9379;52.134;11.576;2022-11-18T05:32:25;99679.13;;;5.37;100.00
18500;BME280;9379;52.134;11.576;2022-11-18T05:34:52;99686.34;;;5.24;100.00
18500;BME280;9379;52.134;11.576;2022-11-18T05:37:18;99687.47;;;5.42;100.00
18500;BME280;9379;52.134;11.576;2022-11-18T05:39:45;99681.16;;;5.45;100.00
18500;BME280;9379;52.134;11.576;2022-11-18T05:42:13;99680.59;;;5.19;100.00
18500;BME280;9379;52.134;11.576;2022-11-18T05:44:58;99691.25;;;5.61;100.00
18500;BME280;9379;52.134;11.576;2022-11-18T05:47:25;99693.78;;;5.19;100.00
18500;BME280;9379;52.134;11.576;2022-11-18T05:49:51;99688.53;;;5.51;100.00
18500;BME280;9379;52.134;11.576;2022-11-18T05:52:18;99697.25;;;5.19;100.00
18500;BME280;9379;52.134;11.576;2022-11-18T05:54:48;99670.03;;;4.98;100.00
18500;BME280;9379;52.134;11.576;2022-11-18T05:57:16;99697.25;;;5.19;100.00
18500;BME280;9379;52.134;11.576;2022-11-18T05:59:43;99689.31;;;4.87;100.00
18500;BME280;9379;52.134;11.576;2022-11-18T06:02:12;99697.44;;;4.62;100.00
18500;BME280;9379;52.134;11.576;2022-11-18T06:04:41;99695.28;;;4.67;100.00
18500;BME280;9379;52.134;11.576;2022-11-18T06:07:13;99692.72;;;5.21;100.00
18500;BME280;9379;52.134;11.576;2022-11-18T06:09:43;99706.69;;;5.33;100.00
18500;BME280;9379;52.134;11.576;2022-11-18T06:12:13;99711.97;;;5.33;100.00
18500;BME280;9379;52.134;11.576;2022-11-18T06:14:44;99687.94;;;5.15;100.00
18500;BME280;9379;52.134;11.576;2022-11-18T06:17:18;99704.09;;;5.11;100.00
18500;BME280;9379;52.134;11.576;2022-11-18T06:19:45;99717.31;;;5.43;100.00
18500;BME280;9379;52.134;11.576;2022-11-18T06:22:12;99725.53;;;5.06;100.00
18500;BME280;9379;52.134;11.576;2022-11-18T06:24:40;99725.63;;;5.27;100.00
18500;BME280;9379;52.134;11.576;2022-11-18T06:27:08;99727.16;;;5.30;100.00
18500;BME280;9379;52.134;11.576;2022-11-18T06:29:35;99737.97;;;4.93;100.00
18500;BME280;9379;52.134;11.576;2022-11-18T06:32:03;99733.56;;;4.82;100.00
18500;BME280;9379;52.134;11.576;2022-11-18T06:34:30;99736.06;;;4.84;100.00
18500;BME280;9379;52.134;11.576;2022-11-18T06:36:57;99743.63;;;4.77;100.00
18500;BME280;9379;52.134;11.576;2022-11-18T06:39:24;99753.66;;;4.94;100.00
18500;BME280;9379;52.134;11.576;2022-11-18T06:41:51;99755.00;;;5.00;99.92
18500;BME280;9379;52.134;11.576;2022-11-18T06:44:18;99756.34;;;4.37;100.00
18500;BME280;9379;52.134;11.576;2022-11-18T06:46:44;99765.72;;;4.52;100.00
18500;BME280;9379;52.134;11.576;2022-11-18T06:49:25;99772.03;;;4.38;100.00
18500;BME280;9379;52.134;11.576;2022-11-18T06:51:52;99776.56;;;4.36;100.00
18500;BME280;9379;52.134;11.576;2022-11-18T06:54:20;99773.88;;;4.72;100.00
18500;BME280;9379;52.134;11.576;2022-11-18T06:56:46;99774.50;;;4.75;100.00
18500;BME280;9379;52.134;11.576;2022-11-18T06:59:13;99769.94;;;5.00;100.00
18500;BME280;9379;52.134;11.576;2022-11-18T07:01:45;99786.31;;;4.69;100.00
18500;BME280;9379;52.134;11.576;2022-11-18T07:04:12;99786.19;;;4.71;99.20
18500;BME280;9379;52.134;11.576;2022-11-18T07:06:40;99782.13;;;4.56;100.00
18500;BME280;9379;52.134;11.576;2022-11-18T07:09:07;99794.78;;;4.62;100.00
18500;BME280;9379;52.134;11.576;2022-11-18T07:11:34;99791.94;;;4.65;100.00
18500;BME280;9379;52.134;11.576;2022-11-18T07:14:02;99795.78;;;5.06;100.00
18500;BME280;9379;52.134;11.576;2022-11-18T07:16:29;99804.75;;;4.81;99.72
18500;BME280;9379;52.134;11.576;2022-11-18T07:18:56;99808.53;;;4.54;100.00
18500;BME280;9379;52.134;11.576;2022-11-18T07:21:24;99805.16;;;4.41;100.00
18500;BME280;9379;52.134;11.576;2022-11-18T07:23:53;99805.81;;;4.67;100.00
18500;BME280;9379;52.134;11.576;2022-11-18T07:26:20;99809.88;;;4.71;100.00
18500;BME280;9379;52.134;11.576;2022-11-18T07:28:48;99812.91;;;4.89;100.00
18500;BME280;9379;52.134;11.576;2022-11-18T07:31:16;99800.09;;;4.27;100.00
18500;BME280;9379;52.134;11.576;2022-11-18T07:33:44;99819.75;;;4.45;100.00
18500;BME280;9379;52.134;11.576;2022-11-18T07:36:13;99827.09;;;4.18;100.00
18500;BME280;9379;52.134;11.576;2022-11-18T07:38:40;99829.09;;;4.49;100.00
18500;BME280;9379;52.134;11.576;2022-11-18T07:41:10;99830.13;;;4.35;100.00
18500;BME280;9379;52.134;11.576;2022-11-18T07:43:37;99825.75;;;3.88;100.00
18500;BME280;9379;52.134;11.576;2022-11-18T07:46:12;99841.22;;;4.04;100.00
18500;BME280;9379;52.134;11.576;2022-11-18T07:48:40;99838.06;;;4.12;100.00
18500;BME280;9379;52.134;11.576;2022-11-18T07:51:08;99835.19;;;3.91;100.00
18500;BME280;9379;52.134;11.576;2022-11-18T07:53:35;99848.06;;;3.83;100.00
18500;BME280;9379;52.134;11.576;2022-11-18T07:56:03;99852.25;;;3.85;100.00
18500;BME280;9379;52.134;11.576;2022-11-18T07:58:32;99854.13;;;4.20;100.00
18500;BME280;9379;52.134;11.576;2022-11-18T08:01:05;99856.47;;;4.47;100.00
18500;BME280;9379;52.134;11.576;2022-11-18T08:03:33;99852.97;;;4.35;99.11
18500;BME280;9379;52.134;11.576;2022-11-18T08:06:00;99862.06;;;4.07;99.58
18500;BME280;9379;52.134;11.576;2022-11-18T08:08:27;99866.75;;;4.15;99.34
18500;BME280;9379;52.134;11.576;2022-11-18T08:10:54;99870.91;;;4.30;98.81
18500;BME280;9379;52.134;11.576;2022-11-18T08:13:22;99862.66;;;4.34;98.46
18500;BME280;9379;52.134;11.576;2022-11-18T08:15:50;99874.47;;;4.64;96.84
18500;BME280;9379;52.134;11.576;2022-11-18T08:18:17;99883.75;;;4.46;97.54
18500;BME280;9379;52.134;11.576;2022-11-18T08:20:44;99891.75;;;4.44;96.95
18500;BME280;9379;52.134;11.576;2022-11-18T08:23:11;99887.22;;;4.22;97.12
18500;BME280;9379;52.134;11.576;2022-11-18T08:25:39;99890.56;;;4.00;97.64
18500;BME280;9379;52.134;11.576;2022-11-18T08:28:06;99886.44;;;4.09;97.96
18500;BME280;9379;52.134;11.576;2022-11-18T08:30:33;99893.94;;;4.26;97.40
18500;BME280;9379;52.134;11.576;2022-11-18T08:33:01;99875.63;;;4.25;96.04
18500;BME280;9379;52.134;11.576;2022-11-18T08:35:30;99890.88;;;4.32;96.24
18500;BME280;9379;52.134;11.576;2022-11-18T08:37:57;99910.50;;;4.16;96.45
18500;BME280;9379;52.134;11.576;2022-11-18T08:40:25;99914.53;;;4.56;96.47
18500;BME280;9379;52.134;11.576;2022-11-18T08:42:52;99899.22;;;4.61;95.17
18500;BME280;9379;52.134;11.576;2022-11-18T08:45:18;99923.66;;;4.63;95.42
18500;BME280;9379;52.134;11.576;2022-11-18T08:47:45;99916.28;;;4.21;96.41
18500;BME280;9379;52.134;11.576;2022-11-18T08:50:13;99931.66;;;4.73;95.92
18500;BME280;9379;52.134;11.576;2022-11-18T08:52:40;99921.19;;;4.49;95.49
18500;BME280;9379;52.134;11.576;2022-11-18T08:55:07;99929.31;;;4.22;97.02
18500;BME280;9379;52.134;11.576;2022-11-18T08:57:34;99930.69;;;4.15;97.86
18500;BME280;9379;52.134;11.576;2022-11-18T09:00:02;99932.34;;;3.92;98.29
18500;BME280;9379;52.134;11.576;2022-11-18T09:02:28;99940.88;;;3.96;97.44
18500;BME280;9379;52.134;11.576;2022-11-18T09:04:55;99947.69;;;3.98;98.30
18500;BME280;9379;52.134;11.576;2022-11-18T09:07:23;99945.97;;;4.10;98.07
18500;BME280;9379;52.134;11.576;2022-11-18T09:09:50;99944.00;;;4.01;98.69
18500;BME280;9379;52.134;11.576;2022-11-18T09:12:17;99951.41;;;4.20;97.79
18500;BME280;9379;52.134;11.576;2022-11-18T09:14:44;99942.47;;;3.86;99.07
18500;BME280;9379;52.134;11.576;2022-11-18T09:17:11;99956.66;;;4.20;97.55
18500;BME280;9379;52.134;11.576;2022-11-18T09:19:39;99966.47;;;4.05;98.52
18500;BME280;9379;52.134;11.576;2022-11-18T09:22:06;99954.97;;;3.95;99.45
18500;BME280;9379;52.134;11.576;2022-11-18T09:24:35;99973.28;;;4.20;98.81
18500;BME280;9379;52.134;11.576;2022-11-18T09:27:03;99978.66;;;4.19;99.37
18500;BME280;9379;52.134;11.576;2022-11-18T09:29:30;99975.13;;;4.07;98.76
18500;BME280;9379;52.134;11.576;2022-11-18T09:31:58;99976.59;;;4.35;99.31
18500;BME280;9379;52.134;11.576;2022-11-18T09:34:26;99977.09;;;4.03;99.91
18500;BME280;9379;52.134;11.576;2022-11-18T09:36:53;99985.00;;;4.03;99.86
18500;BME280;9379;52.134;11.576;2022-11-18T09:39:21;99978.38;;;4.34;97.50
18500;BME280;9379;52.134;11.576;2022-11-18T09:41:55;99988.09;;;3.85;99.69
18500;BME280;9379;52.134;11.576;2022-11-18T09:44:40;99986.66;;;4.04;99.95
18500;BME280;9379;52.134;11.576;2022-11-18T09:47:19;99988.00;;;4.23;98.23
18500;BME280;9379;52.134;11.576;2022-11-18T09:49:49;99981.63;;;4.38;97.16
18500;BME280;9379;52.134;11.576;2022-11-18T09:52:18;99987.16;;;4.22;96.33
18500;BME280;9379;52.134;11.576;2022-11-18T09:54:46;99994.41;;;3.69;99.30
18500;BME280;9379;52.134;11.576;2022-11-18T09:57:16;100004.69;;;3.98;98.93
18500;BME280;9379;52.134;11.576;2022-11-18T09:59:44;99995.63;;;4.62;96.34
18500;BME280;9379;52.134;11.576;2022-11-18T10:02:26;99999.50;;;4.09;96.27
18500;BME280;9379;52.134;11.576;2022-11-18T10:04:54;100006.03;;;4.03;96.99
18500;BME280;9379;52.134;11.576;2022-11-18T10:07:28;100007.06;;;4.14;97.58
18500;BME280;9379;52.134;11.576;2022-11-18T10:10:00;100005.66;;;4.33;96.69
18500;BME280;9379;52.134;11.576;2022-11-18T10:12:35;100012.50;;;4.23;95.57
18500;BME280;9379;52.134;11.576;2022-11-18T10:15:17;100011.34;;;3.65;96.80
18500;BME280;9379;52.134;11.576;2022-11-18T10:17:52;100014.88;;;4.02;96.23
18500;BME280;9379;52.134;11.576;2022-11-18T10:20:29;100016.16;;;3.84;96.71
18500;BME280;9379;52.134;11.576;2022-11-18T10:23:02;100018.34;;;3.90;96.83
18500;BME280;9379;52.134;11.576;2022-11-18T10:25:30;100028.88;;;3.90;97.28
18500;BME280;9379;52.134;11.576;2022-11-18T10:28:10;100030.53;;;4.04;96.69
18500;BME280;9379;52.134;11.576;2022-11-18T10:30:39;100026.50;;;4.24;96.52
18500;BME280;9379;52.134;11.576;2022-11-18T10:33:18;100041.97;;;4.16;95.70
18500;BME280;9379;52.134;11.576;2022-11-18T10:35:49;100040.88;;;4.44;96.08
18500;BME280;9379;52.134;11.576;2022-11-18T10:38:18;100042.44;;;4.46;94.63
18500;BME280;9379;52.134;11.576;2022-11-18T10:40:56;100054.78;;;4.33;95.43
18500;BME280;9379;52.134;11.576;2022-11-18T10:43:44;100056.38;;;4.59;95.07
18500;BME280;9379;52.134;11.576;2022-11-18T10:46:22;100059.47;;;4.53;94.52
18500;BME280;9379;52.134;11.576;2022-11-18T10:49:11;100061.41;;;4.26;96.23
18500;BME280;9379;52.134;11.576;2022-11-18T10:51:40;100063.38;;;3.73;99.67
18500;BME280;9379;52.134;11.576;2022-11-18T10:54:16;100063.66;;;3.56;98.69
18500;BME280;9379;52.134;11.576;2022-11-18T10:56:45;100060.84;;;3.71;99.51
18500;BME280;9379;52.134;11.576;2022-11-18T10:59:24;100058.75;;;3.64;99.42
18500;BME280;9379;52.134;11.576;2022-11-18T11:02:00;100063.22;;;4.13;96.78
18500;BME280;9379;52.134;11.576;2022-11-18T11:04:29;100071.97;;;4.00;98.12
18500;BME280;9379;52.134;11.576;2022-11-18T11:06:56;100073.66;;;4.01;96.93
18500;BME280;9379;52.134;11.576;2022-11-18T11:09:28;100066.41;;;3.79;98.34
18500;BME280;9379;52.134;11.576;2022-11-18T11:11:57;100063.16;;;3.63;98.97
18500;BME280;9379;52.134;11.576;2022-11-18T11:14:30;100071.25;;;3.86;97.75
18500;BME280;9379;52.134;11.576;2022-11-18T11:17:03;100080.94;;;3.60;98.72
18500;BME280;9379;52.134;11.576;2022-11-18T11:19:36;100087.03;;;3.20;98.73
18500;BME280;9379;52.134;11.576;2022-11-18T11:22:08;100084.72;;;2.89;100.00
18500;BME280;9379;52.134;11.576;2022-11-18T11:24:35;100100.81;;;2.97;100.00
18500;BME280;9379;52.134;11.576;2022-11-18T11:27:10;100096.84;;;3.31;99.38
18500;BME280;9379;52.134;11.576;2022-11-18T11:30:12;100094.81;;;3.22;99.22
18500;BME280;9379;52.134;11.576;2022-11-18T11:33:02;100100.22;;;3.59;98.70
18500;BME280;9379;52.134;11.576;2022-11-18T11:35:35;100104.34;;;3.63;97.67
18500;BME280;9379;52.134;11.576;2022-11-18T11:38:14;100105.44;;;3.33;99.14
18500;BME280;9379;52.134;11.576;2022-11-18T11:40:52;100101.47;;;3.28;99.57
18500;BME280;9379;52.134;11.576;2022-11-18T11:43:31;100094.47;;;3.54;97.26
18500;BME280;9379;52.134;11.576;2022-11-18T11:46:18;100107.34;;;3.31;97.51
18500;BME280;9379;52.134;11.576;2022-11-18T11:48:57;100099.47;;;3.44;96.65
18500;BME280;9379;52.134;11.576;2022-11-18T11:51:31;100108.78;;;3.62;95.52
18500;BME280;9379;52.134;11.576;2022-11-18T11:54:26;100109.41;;;3.13;95.58
18500;BME280;9379;52.134;11.576;2022-11-18T11:57:03;100108.06;;;3.73;95.55
18500;BME280;9379;52.134;11.576;2022-11-18T11:59:36;100094.69;;;3.63;96.03
18500;BME280;9379;52.134;11.576;2022-11-18T12:02:24;100114.78;;;3.77;94.48
18500;BME280;9379;52.134;11.576;2022-11-18T12:04:57;100116.44;;;3.78;93.99
18500;BME280;9379;52.134;11.576;2022-11-18T12:07:28;100112.50;;;3.45;95.64
18500;BME280;9379;52.134;11.576;2022-11-18T12:10:08;100119.38;;;3.61;94.98
18500;BME280;9379;52.134;11.576;2022-11-18T12:12:46;100124.22;;;3.79;95.12
18500;BME280;9379;52.134;11.576;2022-11-18T12:15:26;100133.50;;;3.72;95.30
18500;BME280;9379;52.134;11.576;2022-11-18T12:18:07;100130.72;;;3.48;95.88
18500;BME280;9379;52.134;11.576;2022-11-18T12:20:42;100133.19;;;3.90;95.84
18500;BME280;9379;52.134;11.576;2022-11-18T12:23:12;100119.09;;;4.03;93.96
18500;BME280;9379;52.134;11.576;2022-11-18T12:25:53;100122.50;;;3.40;94.23
18500;BME280;9379;52.134;11.576;2022-11-18T12:28:25;100132.66;;;3.32;96.47
18500;BME280;9379;52.134;11.576;2022-11-18T12:31:32;100140.31;;;3.75;94.03
18500;BME280;9379;52.134;11.576;2022-11-18T12:34:17;100141.88;;;3.65;92.83
18500;BME280;9379;52.134;11.576;2022-11-18T12:36:45;100139.34;;;3.23;95.10
18500;BME280;9379;52.134;11.576;2022-11-18T12:39:46;100147.75;;;3.68;93.76
18500;BME280;9379;52.134;11.576;2022-11-18T12:42:40;100152.03;;;3.57;94.17
18500;BME280;9379;52.134;11.576;2022-11-18T12:45:56;100144.91;;;3.59;93.45
18500;BME280;9379;52.134;11.576;2022-11-18T12:48:34;100165.16;;;3.84;92.71
18500;BME280;9379;52.134;11.576;2022-11-18T12:53:56;100157.25;;;3.71;92.63
18500;BME280;9379;52.134;11.576;2022-11-18T12:56:25;100170.16;;;3.61;91.59
18500;BME280;9379;52.134;11.576;2022-11-18T12:58:54;100162.09;;;3.37;93.32
18500;BME280;9379;52.134;11.576;2022-11-18T13:01:23;100167.06;;;3.55;92.40
18500;BME280;9379;52.134;11.576;2022-11-18T13:03:51;100173.06;;;3.17;93.78
18500;BME280;9379;52.134;11.576;2022-11-18T13:06:23;100175.56;;;3.45;93.97
18500;BME280;9379;52.134;11.576;2022-11-18T13:08:53;100177.31;;;3.72;92.44
18500;BME280;9379;52.134;11.576;2022-11-18T13:11:21;100184.03;;;3.63;92.23
18500;BME280;9379;52.134;11.576;2022-11-18T13:14:11;100190.72;;;3.55;92.17
18500;BME280;9379;52.134;11.576;2022-11-18T13:17:25;100187.91;;;3.31;92.83
18500;BME280;9379;52.134;11.576;2022-11-18T13:20:22;100187.88;;;3.58;91.57
18500;BME280;9379;52.134;11.576;2022-11-18T13:22:52;100198.19;;;3.07;91.82
18500;BME280;9379;52.134;11.576;2022-11-18T13:25:36;100194.81;;;3.59;91.19
18500;BME280;9379;52.134;11.576;2022-11-18T13:28:10;100172.72;;;3.36;90.57
18500;BME280;9379;52.134;11.576;2022-11-18T13:30:46;100204.91;;;3.52;91.05